Terminal Aerodrome Forecast
Issued by NWS Omaha/Valley, NE

Home | Current Version | Previous Version | Text Only | Print | Product List | Glossary Off
Versions: 1 2 3 4 5 6 7 8 9 10 11 12 13 14 15 16 17 18 19 20 21 22 23 24

000
FTUS43 KOAX 261936 AAA
TAFOFK
TAF AMD
KOFK 261936Z 2620/2718 11008KT P6SM SCT035 SCT100
     FM270100 34008KT P6SM SCT040
     FM271400 33018G25KT P6SM SCT100=

USA.gov is the U.S. government's official web portal to all federal, state and local government web resources and services.